Time;durP1;ratioP1;P1;durP2;ratioP2;P2;SDS_P1;SDS_P2;PMS_P1;PMS_P2;Temp;Humidity;BMP_temperature;BMP_pressure;BME280_temperature;BME280_humidity;BME280_pressure;Samples;Min_cycle;Max_cycle;Signal;HPM_P1;HPM_P2
2021/04/09 00:01:41;;;;;;;49.95;22.05;;;;;;;-0.72;83.07;98892.45;1792569;79;21102;-73
2021/04/09 00:04:08;;;;;;;79.70;37.93;;;;;;;-0.72;82.73;98891.94;1792660;80;21094;-73
2021/04/09 00:06:34;;;;;;;51.48;25.62;;;;;;;-0.69;82.55;98888.07;1792582;79;21213;-73
2021/04/09 00:09:01;;;;;;;44.13;24.67;;;;;;;-0.70;82.94;98898.41;1792597;80;21121;-73
2021/04/09 00:11:27;;;;;;;49.10;22.87;;;;;;;-0.70;82.29;98893.91;1792472;79;21416;-73
2021/04/09 00:13:54;;;;;;;43.33;22.65;;;;;;;-0.69;82.26;98894.72;1792755;80;21522;-73
2021/04/09 00:16:20;;;;;;;46.20;22.07;;;;;;;-0.72;82.16;98893.78;1792564;79;21158;-73
2021/04/09 00:18:46;;;;;;;53.78;23.85;;;;;;;-0.74;82.29;98891.31;1792682;80;21306;-73
2021/04/09 00:21:12;;;;;;;84.80;32.65;;;;;;;-0.74;82.40;98893.97;1792634;79;21066;-73
2021/04/09 00:23:38;;;;;;;83.58;35.88;;;;;;;-0.76;82.34;98896.50;1792619;80;21157;-73
2021/04/09 00:26:04;;;;;;;46.90;24.77;;;;;;;-0.79;82.34;98901.67;1792622;79;21114;-73
2021/04/09 00:28:31;;;;;;;43.40;24.85;;;;;;;-0.77;82.44;98906.80;1792638;80;21125;-73
2021/04/09 00:30:57;;;;;;;41.73;20.88;;;;;;;-0.78;82.43;98903.83;1792588;79;22055;-73
2021/04/09 00:33:23;;;;;;;44.63;21.65;;;;;;;-0.79;82.48;98902.18;1792643;80;21158;-73
2021/04/09 00:35:49;;;;;;;42.20;20.25;;;;;;;-0.80;82.41;98902.69;1792712;79;21051;-73
2021/04/09 00:38:15;;;;;;;58.15;25.45;;;;;;;-0.84;82.57;98902.75;1792626;80;21115;-73
2021/04/09 00:40:41;;;;;;;51.88;20.77;;;;;;;-0.86;82.52;98909.56;1792625;79;21039;-73
2021/04/09 00:43:08;;;;;;;43.90;20.35;;;;;;;-0.87;82.52;98902.59;1792600;80;22059;-73
2021/04/09 00:45:35;;;;;;;41.63;22.10;;;;;;;-0.95;82.52;98900.03;1792622;79;21091;-73
2021/04/09 00:48:03;;;;;;;35.73;19.12;;;;;;;-0.99;82.46;98908.08;1792575;80;21042;-73
2021/04/09 00:50:29;;;;;;;47.05;20.30;;;;;;;-1.00;82.56;98901.61;1792724;79;21046;-73
2021/04/09 00:52:55;;;;;;;38.40;19.62;;;;;;;-1.04;82.62;98895.81;1792860;80;21114;-73
2021/04/09 00:55:21;;;;;;;36.05;20.32;;;;;;;-1.07;82.82;98901.52;1792836;79;21105;-73
2021/04/09 00:57:50;;;;;;;34.88;17.40;;;;;;;-1.08;82.96;98907.84;1792716;80;21031;-73
2021/04/09 01:00:18;;;;;;;47.67;21.65;;;;;;;-1.12;83.04;98907.88;1792990;79;21039;-73
2021/04/09 01:02:44;;;;;;;42.48;20.08;;;;;;;-1.18;82.92;98897.99;1792755;80;21102;-73
2021/04/09 01:05:13;;;;;;;39.78;17.45;;;;;;;-1.23;83.00;98899.03;1792769;79;21260;-73
2021/04/09 01:07:39;;;;;;;40.12;20.68;;;;;;;-1.22;82.90;98899.35;1792893;80;21193;-73
2021/04/09 01:10:08;;;;;;;30.85;16.30;;;;;;;-1.21;82.93;98899.67;1792680;79;21097;-73
2021/04/09 01:12:34;;;;;;;41.13;20.77;;;;;;;-1.19;82.98;98893.18;1792805;80;21142;-73
2021/04/09 01:15:00;;;;;;;36.65;19.60;;;;;;;-1.24;82.83;98891.56;1792771;79;21571;-73
2021/04/09 01:17:42;;;;;;;46.85;20.65;;;;;;;-1.25;82.88;98891.24;1792754;80;21087;-73
2021/04/09 01:20:31;;;;;;;40.98;23.87;;;;;;;-1.29;82.72;98896.59;1792791;79;22074;-74
2021/04/09 01:23:18;;;;;;;;;;;;;;;-1.36;83.13;98894.36;1795447;80;21145;-73
2021/04/09 01:26:19;;;;;;;40.30;21.77;;;;;;;-1.42;83.38;98891.92;1792765;79;20214;-73
2021/04/09 01:29:07;;;;;;;44.73;20.82;;;;;;;-1.53;82.26;98892.38;1792743;80;21138;-73
2021/04/09 01:31:55;;;;;;;38.83;18.75;;;;;;;-1.65;83.72;98892.97;1792840;79;21138;-73
2021/04/09 01:34:21;;;;;;;41.48;18.80;;;;;;;-1.67;82.57;98879.87;1792888;80;21509;-73
2021/04/09 01:36:53;;;;;;;40.58;20.97;;;;;;;-1.62;82.52;98894.78;1792710;79;21401;-73
2021/04/09 01:39:36;;;;;;;40.75;18.75;;;;;;;-1.64;82.72;98892.78;1792757;80;21471;-74
2021/04/09 01:42:05;;;;;;;43.28;19.35;;;;;;;-1.62;82.76;98891.27;1789654;79;21527;-74
2021/04/09 01:44:32;;;;;;;;;;;;;;;-1.64;82.55;98893.29;1794534;80;21479;-74
2021/04/09 01:46:58;;;;;;;38.78;21.52;;;;;;;-1.69;82.58;98893.84;1792803;79;22229;-74
2021/04/09 01:49:26;;;;;;;47.23;19.65;;;;;;;-1.73;83.49;98888.05;1792728;80;21125;-74
2021/04/09 01:51:54;;;;;;;39.00;19.00;;;;;;;-1.67;82.63;98887.02;1792780;79;21416;-74
2021/04/09 01:54:20;;;;;;;37.15;21.48;;;;;;;-1.67;82.53;98885.19;1764110;80;21074;-74
2021/04/09 01:56:46;;;;;;;52.83;25.12;;;;;;;-1.66;82.57;98883.35;1763896;80;21293;-74
2021/04/09 01:59:13;;;;;;;35.50;19.10;;;;;;;-1.65;82.64;98891.14;1792815;80;21216;-74
2021/04/09 02:01:39;;;;;;;41.28;18.35;;;;;;;-1.63;82.56;98890.95;1792686;79;21051;-74
2021/04/09 02:04:05;;;;;;;33.50;18.17;;;;;;;-1.62;82.50;98890.80;1792756;80;21114;-74
2021/04/09 02:06:34;;;;;;;48.28;21.93;;;;;;;-1.58;82.43;98888.59;1792761;79;21514;-74
2021/04/09 02:09:00;;;;;;;38.60;19.07;;;;;;;-1.61;82.34;98887.64;1792917;80;21093;-74
2021/04/09 02:11:28;;;;;;;40.73;17.77;;;;;;;-1.67;82.29;98885.69;1792395;79;21961;-74
2021/04/09 02:13:54;;;;;;;32.48;17.40;;;;;;;-1.68;82.07;98882.20;1776049;80;21110;-74
2021/04/09 02:16:20;;;;;;;37.35;17.77;;;;;;;-1.69;82.10;98879.73;1776149;80;21453;-74
2021/04/09 02:18:46;;;;;;;27.73;13.28;;;;;;;-1.71;82.06;98876.76;1745692;80;21118;-74
2021/04/09 02:21:12;;;;;;;28.40;13.65;;;;;;;-1.68;82.13;98884.87;1776102;80;21331;-74
2021/04/09 02:23:38;;;;;;;33.28;15.48;;;;;;;-1.71;82.09;98881.22;1776168;80;22050;-74
2021/04/09 02:26:05;;;;;;;28.98;13.32;;;;;;;-1.75;82.10;98880.77;1776018;80;21099;-74
2021/04/09 02:28:31;;;;;;;32.88;9.90;;;;;;;-1.78;82.20;98885.63;1776077;80;21421;-74
2021/04/09 02:31:03;;;;;;;48.40;21.20;;;;;;;-1.83;82.33;98881.34;1776139;80;21087;-74
2021/04/09 02:33:31;;;;;;;29.27;14.83;;;;;;;-1.90;82.24;98886.54;1776062;80;21027;-73
2021/04/09 02:35:57;;;;;;;29.72;16.00;;;;;;;-1.95;82.34;98882.28;1776050;80;21476;-73
2021/04/09 02:38:29;;;;;;;28.67;16.65;;;;;;;-2.00;82.42;98888.12;1775989;80;21134;-73
2021/04/09 02:40:57;;;;;;;34.48;18.65;;;;;;;-2.13;83.15;98882.59;1776091;80;21117;-74
2021/04/09 02:43:23;;;;;;;41.37;21.17;;;;;;;-2.09;82.54;98884.38;1776070;80;21544;-74
2021/04/09 02:45:49;;;;;;;39.48;20.35;;;;;;;-2.17;82.53;98880.45;1776078;80;21396;-74
2021/04/09 02:48:15;;;;;;;44.05;19.10;;;;;;;-2.23;83.37;98875.84;1776046;80;21959;-74
2021/04/09 02:50:43;;;;;;;41.77;20.95;;;;;;;-2.21;82.96;98869.88;1708597;80;21074;-74
2021/04/09 02:53:15;;;;;;;38.98;21.30;;;;;;;-2.25;82.93;98873.37;1776166;80;21437;-74
2021/04/09 02:55:44;;;;;;;45.67;22.37;;;;;;;-2.23;82.66;98874.01;1776136;80;21436;-74
2021/04/09 02:58:11;;;;;;;;;;;;;;;-2.23;82.71;98877.99;1778700;80;21020;-74
2021/04/09 03:00:38;;;;;;;43.17;22.65;;;;;;;-2.22;82.61;98874.36;1776143;80;20507;-74
2021/04/09 03:03:05;;;;;;;33.98;17.62;;;;;;;-2.23;82.43;98874.01;1745779;80;21107;-74
2021/04/09 03:05:31;;;;;;;34.83;17.87;;;;;;;-2.21;82.74;98876.01;1776033;80;21099;-74
2021/04/09 03:07:59;;;;;;;29.52;15.63;;;;;;;-2.16;82.60;98878.12;1776020;80;21024;-74
2021/04/09 03:10:25;;;;;;;36.30;18.27;;;;;;;-2.18;82.42;98868.19;1776041;80;21476;-74
2021/04/09 03:12:52;;;;;;;38.33;15.83;;;;;;;-2.21;82.17;98879.17;1784012;80;21467;-74
2021/04/09 03:15:25;;;;;;;43.65;18.62;;;;;;;-2.22;82.00;98870.85;1792687;79;21435;-74
2021/04/09 03:17:57;;;;;;;32.80;15.63;;;;;;;-2.31;82.14;98864.77;1791724;79;21524;-75
2021/04/09 03:20:24;;;;;;;29.90;15.23;;;;;;;-2.34;81.87;98869.12;1792641;79;21567;-73
2021/04/09 03:22:51;;;;;;;39.50;19.75;;;;;;;-2.42;81.57;98863.87;1792637;80;21027;-73
2021/04/09 03:25:17;;;;;;;44.45;21.70;;;;;;;-2.52;82.03;98861.95;1792743;79;21424;-73
2021/04/09 03:27:43;;;;;;;37.15;20.05;;;;;;;-2.56;81.59;98862.31;1792598;80;21173;-73
2021/04/09 03:30:23;;;;;;;31.75;18.98;;;;;;;-2.63;81.80;98869.81;1792611;79;21129;-73
2021/04/09 03:32:49;;;;;;;36.40;17.20;;;;;;;-2.65;81.93;98859.38;1792660;80;21050;-73
2021/04/09 03:35:19;;;;;;;31.90;15.88;;;;;;;-2.62;82.00;98861.67;1792760;79;21038;-73
2021/04/09 03:37:45;;;;;;;50.63;26.87;;;;;;;-2.63;81.71;98862.67;1792646;80;21260;-74
2021/04/09 03:40:13;;;;;;;46.73;22.10;;;;;;;-2.61;82.10;98862.00;1763905;79;21189;-74
2021/04/09 03:42:39;;;;;;;39.55;21.35;;;;;;;-2.59;82.29;98867.95;1792563;80;21090;-74
2021/04/09 03:45:06;;;;;;;39.23;22.20;;;;;;;-2.58;82.06;98864.79;1792720;79;21126;-74
2021/04/09 03:47:33;;;;;;;40.17;20.35;;;;;;;-2.58;81.72;98866.94;1792697;80;21527;-74
2021/04/09 03:49:59;;;;;;;40.43;19.82;;;;;;;-2.65;81.81;98862.03;1792604;79;21324;-74
2021/04/09 03:52:25;;;;;;;49.38;24.95;;;;;;;-2.67;81.87;98864.02;1792567;80;21407;-74
2021/04/09 03:54:51;;;;;;;34.20;18.75;;;;;;;-2.68;81.70;98861.03;1792714;79;21130;-74
2021/04/09 03:57:17;;;;;;;38.30;17.23;;;;;;;-2.68;81.70;98865.52;1792690;80;21150;-74
2021/04/09 03:59:44;;;;;;;58.05;28.75;;;;;;;-2.74;81.47;98866.20;1792714;80;21530;-74
2021/04/09 04:02:10;;;;;;;46.55;24.80;;;;;;;-2.78;82.05;98857.78;1792585;79;21266;-74
2021/04/09 04:04:36;;;;;;;47.23;20.52;;;;;;;-2.76;82.01;98862.91;1792591;80;21130;-74
2021/04/09 04:07:02;;;;;;;37.45;18.73;;;;;;;-2.75;82.23;98862.73;1792710;79;21039;-74
2021/04/09 04:09:29;;;;;;;34.90;19.52;;;;;;;-2.74;81.53;98864.38;1792591;80;21122;-74
2021/04/09 04:11:55;;;;;;;35.98;21.62;;;;;;;-2.81;81.76;98874.56;1792691;79;21063;-74
2021/04/09 04:14:21;;;;;;;47.70;25.72;;;;;;;-2.81;81.99;98861.30;1776079;80;21437;-74
2021/04/09 04:16:47;;;;;;;48.38;21.57;;;;;;;-2.79;81.77;98867.25;1775933;80;21432;-74
2021/04/09 04:19:15;;;;;;;41.83;22.67;;;;;;;-2.77;81.53;98869.22;1776005;80;21092;-74
2021/04/09 04:21:42;;;;;;;39.95;19.40;;;;;;;-2.73;81.63;98863.41;1776135;80;21023;-74
2021/04/09 04:24:08;;;;;;;39.63;17.50;;;;;;;-2.70;81.83;98859.56;1776142;80;21028;-74
2021/04/09 04:26:35;;;;;;;36.95;17.15;;;;;;;-2.64;81.62;98857.05;1776144;80;21199;-74
2021/04/09 04:29:01;;;;;;;35.35;17.40;;;;;;;-2.62;81.25;98860.84;1745708;80;21437;-74
2021/04/09 04:31:27;;;;;;;38.58;15.68;;;;;;;-2.58;81.07;98862.96;1776189;80;21039;-74
2021/04/09 04:33:54;;;;;;;23.07;9.05;;;;;;;-2.62;80.99;98863.00;1776179;80;21127;-74
2021/04/09 04:36:20;;;;;;;42.50;18.12;;;;;;;-2.62;81.03;98867.48;1776174;80;21385;-74
2021/04/09 04:38:48;;;;;;;38.73;18.62;;;;;;;-2.66;81.04;98862.18;1776276;80;22105;-74
2021/04/09 04:41:18;;;;;;;47.67;19.87;;;;;;;-2.62;81.15;98868.30;1776331;80;21115;-74
2021/04/09 04:43:44;;;;;;;71.40;30.32;;;;;;;-2.57;81.16;98869.92;1776237;80;21106;-72
2021/04/09 04:46:11;;;;;;;63.15;26.40;;;;;;;-2.55;80.75;98867.11;1776157;80;21543;-73
2021/04/09 04:48:37;;;;;;;75.40;30.72;;;;;;;-2.57;80.76;98868.59;1776263;80;21122;-73
2021/04/09 04:51:04;;;;;;;102.85;38.20;;;;;;;-2.53;80.79;98878.88;1776136;80;21248;-73
2021/04/09 04:53:30;;;;;;;49.53;16.80;;;;;;;-2.51;80.72;98872.37;1776156;80;21043;-73
2021/04/09 04:55:56;;;;;;;79.75;28.12;;;;;;;-2.38;80.59;98877.95;1776145;80;21106;-73
2021/04/09 04:58:22;;;;;;;67.15;27.17;;;;;;;-2.39;80.42;98874.16;1776102;80;21118;-73
2021/04/09 05:00:48;;;;;;;52.17;21.30;;;;;;;-2.39;80.42;98868.84;1776170;80;21027;-73
2021/04/09 05:03:14;;;;;;;48.85;19.30;;;;;;;-2.31;80.27;98868.28;1776254;80;21268;-73
2021/04/09 05:05:41;;;;;;;61.85;23.35;;;;;;;-2.29;80.23;98865.45;1776074;80;21059;-73
2021/04/09 05:08:07;;;;;;;33.65;16.60;;;;;;;-2.22;80.12;98870.38;1776204;80;21103;-73
2021/04/09 05:10:33;;;;;;;64.58;25.95;;;;;;;-2.13;80.10;98871.97;1776078;80;21110;-73
2021/04/09 05:12:59;;;;;;;43.78;19.42;;;;;;;-2.09;79.96;98865.28;1780912;80;21034;-73
2021/04/09 05:15:25;;;;;;;44.27;21.15;;;;;;;-2.06;79.89;98866.24;1792845;79;21277;-73
2021/04/09 05:17:51;;;;;;;35.92;18.60;;;;;;;-1.95;79.70;98862.86;1792665;80;21059;-73
2021/04/09 05:20:17;;;;;;;33.00;16.75;;;;;;;-1.95;79.45;98864.19;1792749;79;21420;-73
2021/04/09 05:22:44;;;;;;;66.28;27.37;;;;;;;-1.97;79.47;98858.20;1792784;80;21496;-73
2021/04/09 05:25:10;;;;;;;82.70;31.50;;;;;;;-1.93;79.58;98859.02;1792769;79;21339;-73
2021/04/09 05:27:37;;;;;;;64.62;26.93;;;;;;;-1.85;79.67;98859.45;1792788;80;21267;-73
2021/04/09 05:30:05;;;;;;;70.28;27.20;;;;;;;-1.74;79.35;98861.16;1792685;79;21141;-73
2021/04/09 05:32:31;;;;;;;69.20;27.85;;;;;;;-1.64;79.00;98848.94;1792774;80;21503;-73
2021/04/09 05:34:57;;;;;;;69.58;34.13;;;;;;;-1.60;78.95;98851.56;1792721;79;21535;-73
2021/04/09 05:37:23;;;;;;;39.58;12.53;;;;;;;-1.51;78.82;98846.98;1792778;80;21181;-73
2021/04/09 05:39:49;;;;;;;47.53;18.75;;;;;;;-1.40;78.65;98849.70;1792815;80;21220;-73
2021/04/09 05:42:15;;;;;;;46.28;21.87;;;;;;;-1.31;77.90;98841.95;1792714;80;21129;-73
2021/04/09 05:44:43;;;;;;;61.63;30.08;;;;;;;-1.23;78.13;98839.19;1764139;80;21066;-73
2021/04/09 05:47:10;;;;;;;68.05;36.28;;;;;;;-1.07;77.58;98837.67;1792753;79;21023;-73
2021/04/09 05:49:36;;;;;;;48.83;27.60;;;;;;;-0.85;77.08;98839.90;1792741;80;21083;-73
2021/04/09 05:52:05;;;;;;;47.10;21.40;;;;;;;-0.68;76.97;98829.86;1792708;79;21188;-73
2021/04/09 05:54:35;;;;;;;47.48;25.32;;;;;;;-0.50;76.07;98828.92;1792789;80;23663;-73
2021/04/09 05:57:01;;;;;;;60.90;30.25;;;;;;;-0.34;76.45;98831.85;1792790;79;21047;-73
2021/04/09 05:59:27;;;;;;;59.35;26.05;;;;;;;-0.30;76.07;98827.27;1792666;80;21023;-73
2021/04/09 06:01:54;;;;;;;61.10;26.87;;;;;;;-0.24;75.75;98825.70;1792824;79;21090;-73
2021/04/09 06:04:21;;;;;;;71.40;32.93;;;;;;;-0.21;76.01;98828.47;1792675;80;21515;-73
2021/04/09 06:06:47;;;;;;;56.40;25.20;;;;;;;-0.16;75.84;98814.09;1792632;79;21022;-73
2021/04/09 06:09:14;;;;;;;60.52;29.82;;;;;;;-0.09;75.65;98808.28;1792792;80;21126;-73
2021/04/09 06:11:40;;;;;;;31.65;14.28;;;;;;;0.01;75.81;98811.47;1792672;79;21071;-73
2021/04/09 06:14:06;;;;;;;55.88;26.85;;;;;;;0.17;74.89;98813.85;1792643;80;21114;-73
2021/04/09 06:16:32;;;;;;;59.03;32.80;;;;;;;0.20;74.90;98804.63;1792668;79;21491;-74
2021/04/09 06:18:58;;;;;;;45.45;22.52;;;;;;;0.32;74.89;98803.06;1792648;80;21424;-73
2021/04/09 06:21:24;;;;;;;46.53;24.15;;;;;;;0.45;74.44;98796.50;1792678;79;21133;-73
2021/04/09 06:23:50;;;;;;;50.78;28.10;;;;;;;0.59;74.15;98797.38;1792775;80;21063;-73
2021/04/09 06:26:17;;;;;;;44.13;24.67;;;;;;;0.93;73.66;98788.52;1792725;79;21070;-73
2021/04/09 06:28:43;;;;;;;40.88;20.92;;;;;;;1.32;74.47;98787.02;1792694;80;21208;-73
2021/04/09 06:31:09;;;;;;;40.80;19.52;;;;;;;1.63;68.51;98783.29;1792589;79;21019;-73
2021/04/09 06:33:35;;;;;;;33.33;19.52;;;;;;;2.24;73.42;98790.29;1792771;80;21499;-73
2021/04/09 06:36:02;;;;;;;38.48;19.50;;;;;;;2.44;71.68;98787.06;1792748;79;21408;-74
2021/04/09 06:38:29;;;;;;;37.88;18.32;;;;;;;2.68;72.19;98776.20;1792755;80;21578;-74
2021/04/09 06:40:55;;;;;;;31.37;16.30;;;;;;;2.81;69.85;98782.84;1792711;79;21551;-74
2021/04/09 06:43:23;;;;;;;30.27;16.95;;;;;;;3.20;70.92;98772.19;1792681;80;21034;-74
2021/04/09 06:45:50;;;;;;;45.92;25.15;;;;;;;3.28;70.99;98777.30;1792787;79;21026;-73
2021/04/09 06:48:16;;;;;;;28.60;16.87;;;;;;;3.20;70.30;98772.19;1792619;80;21042;-73
2021/04/09 06:50:43;;;;;;;25.65;14.68;;;;;;;3.19;69.42;98772.70;1792661;79;21169;-73
2021/04/09 06:53:13;;;;;;;22.60;13.35;;;;;;;3.53;68.45;98764.78;1792746;80;22042;-74
2021/04/09 06:55:46;;;;;;;24.70;13.62;;;;;;;3.92;62.15;98762.84;1792574;79;21054;-73
2021/04/09 06:58:18;;;;;;;22.32;12.75;;;;;;;4.50;63.87;98755.28;1792690;80;21142;-73
2021/04/09 07:00:45;;;;;;;26.42;14.35;;;;;;;5.26;66.17;98759.87;1792737;79;21102;-73
2021/04/09 07:03:11;;;;;;;24.92;14.40;;;;;;;5.60;58.04;98756.48;1792632;80;21110;-74
2021/04/09 07:05:37;;;;;;;22.67;14.33;;;;;;;6.23;58.47;98751.86;1738721;80;21412;-74
2021/04/09 07:08:04;;;;;;;23.00;13.60;;;;;;;6.76;60.00;98744.18;1792600;80;21118;-74
2021/04/09 07:10:31;;;;;;;19.32;11.20;;;;;;;7.02;57.04;98746.87;1792592;79;21134;-74
2021/04/09 07:13:08;;;;;;;17.82;14.05;;;;;;;6.79;49.14;98742.34;1792584;80;21102;-74
2021/04/09 07:15:40;;;;;;;22.32;14.23;;;;;;;8.11;52.18;98727.75;1792708;79;21083;-73
2021/04/09 07:18:07;;;;;;;16.95;10.70;;;;;;;8.11;52.18;98727.75;1792665;80;21135;-73
2021/04/09 07:20:35;;;;;;;19.70;11.88;;;;;;;8.55;47.62;98727.91;1792646;79;21507;-73
2021/04/09 07:23:03;;;;;;;16.00;9.93;;;;;;;9.04;46.99;98723.91;1792725;80;26935;-74
2021/04/09 07:25:40;;;;;;;22.97;11.27;;;;;;;9.67;44.92;98729.73;1792978;79;21411;-74
2021/04/09 07:28:19;;;;;;;25.37;14.38;;;;;;;9.92;43.10;98717.78;1790927;79;21083;-73
2021/04/09 07:30:54;;;;;;;20.72;9.88;;;;;;;11.02;49.80;98721.97;1792848;79;22117;-73
2021/04/09 07:33:24;;;;;;;13.60;8.75;;;;;;;11.62;43.89;98714.27;1764226;80;21086;-73
2021/04/09 07:35:55;;;;;;;10.72;7.22;;;;;;;11.56;42.12;98708.84;1792700;79;21402;-73
2021/04/09 07:38:31;;;;;;;22.32;10.20;;;;;;;11.55;42.07;98711.30;1792626;80;21063;-74
2021/04/09 07:41:08;;;;;;;39.67;19.70;;;;;;;11.92;41.46;98702.66;1792781;79;21411;-73
2021/04/09 07:43:37;;;;;;;10.08;7.30;;;;;;;12.33;39.04;98707.52;1791852;80;21206;-73
2021/04/09 07:46:05;;;;;;;15.20;8.35;;;;;;;12.26;41.24;98705.63;1792404;79;21118;-74
2021/04/09 07:48:39;;;;;;;23.65;10.50;;;;;;;13.12;37.43;98699.11;1792674;80;21567;-74
2021/04/09 07:51:07;;;;;;;21.35;11.95;;;;;;;13.08;36.77;98700.22;1792600;79;21120;-73
2021/04/09 07:53:37;;;;;;;9.08;5.58;;;;;;;13.31;35.02;98692.50;1792636;80;21177;-73
2021/04/09 07:56:08;;;;;;;19.23;8.25;;;;;;;13.35;36.10;98687.59;1792656;79;22057;-74
2021/04/09 07:58:34;;;;;;;22.30;11.75;;;;;;;14.05;32.83;98687.34;1792578;80;21189;-74
2021/04/09 08:01:00;;;;;;;8.15;5.62;;;;;;;14.09;32.73;98682.38;1792702;79;21042;-74
2021/04/09 08:03:36;;;;;;;8.83;5.12;;;;;;;14.15;34.22;98691.89;1792580;80;21126;-74
2021/04/09 08:06:14;;;;;;;5.78;3.22;;;;;;;14.78;31.62;98679.52;1792712;79;21420;-75
2021/04/09 08:08:56;;;;;;;8.70;4.67;;;;;;;14.20;27.02;98674.14;1792643;80;21273;-73
2021/04/09 08:11:34;;;;;;;6.87;2.92;;;;;;;15.04;29.82;98675.92;1792269;79;47115;-74
2021/04/09 08:14:17;;;;;;;7.67;5.28;;;;;;;14.74;29.72;98675.77;1792513;80;21030;-74
2021/04/09 08:16:49;;;;;;;5.05;3.47;;;;;;;15.13;29.19;98670.91;1791791;79;21165;-73
2021/04/09 08:19:19;;;;;;;6.03;3.98;;;;;;;15.46;29.88;98666.87;1792717;80;21496;-74
2021/04/09 08:21:51;;;;;;;11.10;5.30;;;;;;;15.94;29.46;98673.00;1792625;79;21189;-74
2021/04/09 08:24:19;;;;;;;9.33;5.37;;;;;;;17.04;25.61;98670.97;1792673;80;21435;-74
2021/04/09 08:26:47;;;;;;;9.58;4.10;;;;;;;16.60;25.91;98671.81;1792708;79;21114;-74
2021/04/09 08:29:14;;;;;;;7.15;3.80;;;;;;;16.78;25.54;98659.18;1792701;80;21566;-74
2021/04/09 08:31:41;;;;;;;12.18;5.12;;;;;;;16.68;25.75;98659.91;1792568;79;21050;-74
2021/04/09 08:34:09;;;;;;;9.58;4.87;;;;;;;16.58;26.33;98667.77;1792620;80;21182;-74
2021/04/09 08:36:40;;;;;;;16.60;8.78;;;;;;;17.37;26.06;98653.26;1792718;79;25070;-74
2021/04/09 08:39:10;;;;;;;12.00;6.60;;;;;;;17.47;26.35;98655.76;1792647;80;21487;-74
2021/04/09 08:41:37;;;;;;;11.68;6.53;;;;;;;18.52;25.75;98660.82;1792656;79;21090;-74
2021/04/09 08:44:08;;;;;;;7.90;6.50;;;;;;;18.45;24.97;98656.91;1792701;80;21102;-74
2021/04/09 08:46:34;;;;;;;8.28;4.50;;;;;;;18.56;24.65;98664.56;1792667;79;21206;-74
2021/04/09 08:49:00;;;;;;;18.12;10.65;;;;;;;19.60;24.14;98649.73;1792508;80;21071;-74
2021/04/09 08:51:26;;;;;;;16.77;9.70;;;;;;;19.52;24.32;98652.45;1792562;79;21090;-74
2021/04/09 08:53:53;;;;;;;5.87;3.90;;;;;;;19.85;22.97;98640.42;1792589;80;21042;-74
2021/04/09 08:56:36;;;;;;;10.58;2.55;;;;;;;20.08;24.30;98632.77;1792642;79;21011;-74
2021/04/09 08:59:02;;;;;;;3.90;3.10;;;;;;;21.01;21.33;98622.28;1792605;80;22152;-74
2021/04/09 09:01:28;;;;;;;5.45;3.90;;;;;;;20.29;22.32;98630.94;1763918;80;21035;-74
2021/04/09 09:03:56;;;;;;;3.60;2.80;;;;;;;20.80;23.26;98634.64;1792605;80;21190;-74
2021/04/09 09:06:41;;;;;;;4.83;3.22;;;;;;;21.49;21.66;98620.44;1763117;80;21181;-75
2021/04/09 09:09:07;;;;;;;23.42;12.50;;;;;;;22.03;21.21;98618.23;1792581;80;21028;-74
2021/04/09 09:11:55;;;;;;;4.28;2.85;;;;;;;21.80;19.45;98615.88;1792687;79;21249;-74
2021/04/09 09:14:41;;;;;;;3.77;2.43;;;;;;;21.05;19.59;98607.52;1791576;80;21051;-75
2021/04/09 09:17:22;;;;;;;11.15;3.33;;;;;;;21.06;19.42;98613.27;1792727;79;21790;-75
2021/04/09 09:19:50;;;;;;;5.20;2.70;;;;;;;21.42;18.97;98616.03;1792779;80;21051;-75
2021/04/09 09:22:21;;;;;;;5.85;3.15;;;;;;;20.94;19.47;98608.25;1792888;80;21109;-75
2021/04/09 09:25:03;;;;;;;10.75;5.67;;;;;;;21.12;18.58;98602.29;1792843;80;21204;-75
2021/04/09 09:27:50;;;;;;;4.85;3.50;;;;;;;21.80;17.69;98597.94;1792835;80;21083;-74
2021/04/09 09:30:39;;;;;;;6.78;3.22;;;;;;;20.19;20.29;98597.71;1792812;79;21447;-74
2021/04/09 09:33:28;;;;;;;5.05;3.17;;;;;;;18.66;21.77;98599.56;1792783;80;21106;-74
2021/04/09 09:36:11;;;;;;;;;;;;;;;16.30;24.88;98596.61;1795472;79;21502;-74
2021/04/09 09:38:55;;;;;;;7.65;3.90;;;;;;;14.64;27.07;98590.23;1792793;80;22130;-74
2021/04/09 09:41:43;;;;;;;6.50;3.80;;;;;;;14.04;26.26;98598.53;1763975;80;21427;-75
2021/04/09 09:44:37;;;;;;;8.48;3.47;;;;;;;12.66;28.65;98592.72;1792858;80;27030;-74
2021/04/09 09:47:18;;;;;;;6.17;3.08;;;;;;;12.11;29.64;98589.64;1787973;79;21111;-74
2021/04/09 09:50:11;;;;;;;9.88;2.30;;;;;;;11.58;30.80;98600.00;1792838;80;21146;-73
2021/04/09 09:53:04;;;;;;;8.50;2.90;;;;;;;11.27;31.15;98587.77;1792704;80;21198;-73
2021/04/09 09:55:36;;;;;;;4.95;2.33;;;;;;;10.85;31.97;98578.52;1792667;79;21043;-73
2021/04/09 09:58:19;;;;;;;7.00;3.20;;;;;;;10.65;32.50;98569.77;1792745;80;21148;-73
2021/04/09 10:01:01;;;;;;;6.95;4.00;;;;;;;10.69;32.21;98570.88;1792670;79;21086;-74
2021/04/09 10:03:35;;;;;;;7.12;4.15;;;;;;;10.37;33.13;98568.32;1792064;79;21094;-73
2021/04/09 10:06:08;;;;;;;6.20;4.28;;;;;;;10.26;33.60;98555.02;1792637;79;22120;-74
2021/04/09 10:08:36;;;;;;;4.50;3.70;;;;;;;10.16;33.32;98558.44;1792737;80;21114;-73
2021/04/09 10:11:08;;;;;;;4.65;2.67;;;;;;;9.97;33.40;98541.02;1792627;79;21050;-73
2021/04/09 10:13:39;;;;;;;5.62;2.17;;;;;;;10.00;33.85;98543.19;1792778;80;21126;-73
2021/04/09 10:16:17;;;;;;;5.15;2.92;;;;;;;10.17;33.98;98539.78;1792718;79;21515;-73
2021/04/09 10:18:48;;;;;;;9.65;4.45;;;;;;;9.99;34.41;98541.56;1792237;80;22054;-73
2021/04/09 10:21:26;;;;;;;9.58;4.80;;;;;;;10.02;34.35;98535.09;1792586;79;21138;-74
2021/04/09 10:24:16;;;;;;;7.05;2.87;;;;;;;10.11;34.90;98536.77;1792740;80;21111;-73
2021/04/09 10:26:46;;;;;;;7.30;3.85;;;;;;;10.07;34.14;98524.27;1764710;80;21578;-73
2021/04/09 10:29:29;;;;;;;11.43;3.30;;;;;;;10.11;34.49;98529.99;1792082;80;21126;-74
2021/04/09 10:31:57;;;;;;;7.03;3.67;;;;;;;10.13;34.61;98519.16;1792693;79;22073;-74
2021/04/09 10:34:26;;;;;;;6.05;2.65;;;;;;;10.13;34.79;98516.45;1792833;80;21047;-73
2021/04/09 10:36:53;;;;;;;7.47;3.20;;;;;;;10.24;34.38;98528.17;1792999;79;21559;-73
2021/04/09 10:39:21;;;;;;;7.47;3.22;;;;;;;10.24;33.79;98524.65;1792743;80;21268;-73
2021/04/09 10:41:50;;;;;;;5.47;3.30;;;;;;;10.16;34.12;98512.39;1793059;79;21484;-73
2021/04/09 10:44:19;;;;;;;2.72;2.10;;;;;;;10.21;33.69;98517.84;1792711;80;21972;-74
2021/04/09 10:46:53;;;;;;;4.45;2.55;;;;;;;10.29;34.02;98513.84;1792822;79;21070;-74
2021/04/09 10:49:24;;;;;;;6.75;3.25;;;;;;;10.34;34.23;98507.07;1792752;80;21081;-73
2021/04/09 10:51:55;;;;;;;6.40;3.27;;;;;;;10.42;34.24;98503.34;1792659;79;21048;-73
2021/04/09 10:54:27;;;;;;;3.83;2.25;;;;;;;10.49;32.55;98513.08;1792643;80;21102;-73
2021/04/09 10:57:00;;;;;;;1.37;1.20;;;;;;;10.49;32.55;98513.08;1792632;79;21253;-73
2021/04/09 10:59:28;;;;;;;3.75;2.08;;;;;;;10.26;33.48;98496.78;1792721;80;21586;-75
2021/04/09 11:01:55;;;;;;;3.65;2.75;;;;;;;10.26;33.48;98496.78;1792661;79;21114;-74
2021/04/09 11:04:22;;;;;;;7.15;3.02;;;;;;;10.35;33.92;98502.77;1792626;80;21091;-74
2021/04/09 11:09:41;;;;;;;6.07;3.80;;;;;;;10.61;33.75;98484.67;1874111;75;27320;-73
2021/04/09 11:12:29;;;;;;;2.87;1.72;;;;;;;10.76;33.81;98496.60;1829244;77;21085;-74
2021/04/09 11:15:13;;;;;;;4.67;3.27;;;;;;;10.90;33.49;98493.10;1827615;77;21988;-73
2021/04/09 11:17:42;;;;;;;8.30;3.10;;;;;;;10.83;34.63;98486.31;1827285;78;21078;-74
2021/04/09 11:20:25;;;;;;;8.48;2.27;;;;;;;10.91;33.88;98486.59;1762046;77;21092;-74
2021/04/09 11:23:04;;;;;;;7.30;4.22;;;;;;;10.94;33.22;98493.39;1827416;78;21022;-74
2021/04/09 11:25:37;;;;;;;9.10;2.42;;;;;;;10.82;32.71;98490.92;1827457;77;20996;-74
2021/04/09 11:28:29;;;;;;;6.58;3.20;;;;;;;10.95;34.01;98489.05;1847721;76;22331;-73
2021/04/09 11:30:57;;;;;;;5.60;2.92;;;;;;;10.97;33.43;98495.55;1803754;79;20940;-74
2021/04/09 11:33:39;;;;;;;7.40;4.67;;;;;;;11.07;32.92;98488.77;1786153;80;21284;-74
2021/04/09 11:36:17;;;;;;;10.10;4.10;;;;;;;11.05;32.93;98490.95;1732145;81;21046;-73
2021/04/09 11:38:43;;;;;;;5.67;2.92;;;;;;;11.11;33.66;98493.94;1786047;80;26251;-73
2021/04/09 11:41:30;;;;;;;4.58;2.22;;;;;;;11.10;33.28;98486.86;1785909;79;21074;-73